Řízení letového provozu České republiky  
Aktualizace dat:  21.09.2021 04:27:28 UTC English version
   METEO Zobrazení stránky:  21.09.2021 04:28:44 UTC  
vysvětlivky
METAR EDDB 210420Z 34003KT 9999 -RA FEW031 12/10 Q1025 NOSIG=
METAR EDDC 210420Z 24003KT CAVOK 10/08 Q1026 NOSIG=
METAR EDDE 210420Z 22007KT CAVOK 06/05 Q1026 NOSIG=
METAR EDDF 210420Z 02009KT 350V050 9999 BKN047 12/05 Q1026 NOSIG=
METAR EDDM 210420Z 35003KT CAVOK 10/09 Q1024 NOSIG=
METAR EDDN 210420Z 35003KT 9999 BKN047 09/07 Q1025 NOSIG=
METAR EDDP 210420Z 29004KT CAVOK 10/08 Q1026 NOSIG=
METAR EDQM NIL
METAR EPBY 210400Z 28003KT 2800 0350W R26/1200N BR BCFG NSC 03/02 Q1023=
METAR EPGD 210400Z 28004KT 9999 SCT038 07/05 Q1022=
METAR EPKK 210400Z 20004KT 7000 FEW048 05/05 Q1024=
METAR EPKT 210400Z 00000KT 9999 BKN045 03/03 Q1024=
METAR EPLL 210400Z 26004KT 3300 MIFG BR NSC 02/02 Q1023=
METAR EPPO 210400Z 34002KT CAVOK 07/06 Q1024=
METAR EPRZ 210400Z 27009KT 9999 OVC033 06/05 Q1022=
METAR EPWA 210400Z 29008KT 9999 FEW016 04/04 Q1021 NOSIG=
METAR EPWR 210400Z 25003KT 9000 MIFG NSC 06/06 Q1025=
METAR LHBP 210400Z 08006KT 050V110 CAVOK 09/05 Q1023 NOSIG=
METAR LHSM 210345Z AUTO 35005KT 9000 NSC 09/08 Q1024=
METAR LKBC 210430Z AUTO 27004KT 9999 OVC057 08/06 Q1025=
METAR LKCV 210400Z 00000KT CAVOK 10/09 Q1025 NOSIG RMK BLU BLU=
METAR LKKB 210400Z 31003KT CAVOK 10/08 Q1025 NOSIG RMK BLU BLU=
METAR LKKU NIL
METAR LKKV 210400Z 22002KT 9999 OVC040 06/05 Q1025 RMK REG QNH 1022=
METAR LKLN 210430Z AUTO VRB01KT 9999 OVC059 08/06 Q1025=
METAR LKMT 210400Z 16003KT CAVOK 05/05 Q1025 TEMPO 4000 BR RMK REG QNH 1022=
METAR LKNA 210430Z 33004KT CAVOK 09/06 Q1024 NOSIG RMK BLU BLU=
METAR LKPD 210430Z 23002KT CAVOK 10/08 Q1025 RMK BLACK=
METAR LKPJ 210400Z AUTO VRB01KT CAVOK 08/06 Q1025=
METAR LKPR 210400Z 31003KT 260V340 CAVOK 09/07 Q1025 NOSIG RMK REG QNH 1022=
METAR LKTB 210400Z 06002KT CAVOK 11/06 Q1024 NOSIG RMK REG QNH 1022=
METAR LKVO NIL
METAR LOWI 210420Z 08003KT 9999 FEW010 SCT015 BKN035 11/09 Q1024 NOSIG=
METAR LOWL 210420Z VRB02KT 9999 OVC060 11/07 Q1024 NOSIG=
METAR LOWS 210420Z 21003KT 160V240 9999 FEW006 BKN050 09/09 Q1024 NOSIG=
METAR LOWW 210420Z 34005KT CAVOK 10/08 Q1024 NOSIG=
METAR LZIB 210400Z 01007KT CAVOK 12/06 Q1024 NOSIG=
METAR LZKZ 210400Z 36006KT 9999 FEW033 06/04 Q1023=
METAR LZMC NIL
METAR LZPP 210400Z 36008KT CAVOK 07/06 Q1024=
METAR LZSL NIL
METAR LZTT 210400Z VRB01KT 9999 FEW002 BKN016 05/03 Q1023=
METAR LZZI 210400Z 17003KT 130V220 CAVOK 06/05 Q1024=